sensor_id;sensor_type;location;lat;lon;timestamp;pressure;altitude;pressure_sealevel;temperature;humidity
51249;BME280;39642;47.556;18.728;2023-08-01T00:01:37;99069.91;;;24.66;44.73
51249;BME280;39642;47.556;18.728;2023-08-01T00:04:03;99076.19;;;24.65;44.79
51249;BME280;39642;47.556;18.728;2023-08-01T00:06:29;99075.22;;;24.66;44.78
51249;BME280;39642;47.556;18.728;2023-08-01T00:08:54;99073.41;;;24.66;44.77
51249;BME280;39642;47.556;18.728;2023-08-01T00:11:20;99079.69;;;24.65;44.72
51249;BME280;39642;47.556;18.728;2023-08-01T00:13:46;99085.00;;;24.65;44.77
51249;BME280;39642;47.556;18.728;2023-08-01T00:16:12;99077.91;;;24.66;44.78
51249;BME280;39642;47.556;18.728;2023-08-01T00:18:38;99068.22;;;24.65;44.78
51249;BME280;39642;47.556;18.728;2023-08-01T00:21:04;99068.22;;;24.65;44.66
51249;BME280;39642;47.556;18.728;2023-08-01T00:23:35;99072.69;;;24.64;44.74
51249;BME280;39642;47.556;18.728;2023-08-01T00:26:01;99067.38;;;24.64;44.77
51249;BME280;39642;47.556;18.728;2023-08-01T00:28:28;99064.72;;;24.64;44.76
51249;BME280;39642;47.556;18.728;2023-08-01T00:31:07;99063.03;;;24.63;44.76
51249;BME280;39642;47.556;18.728;2023-08-01T00:33:36;99055.87;;;24.64;44.76
51249;BME280;39642;47.556;18.728;2023-08-01T00:36:02;99053.22;;;24.64;44.82
51249;BME280;39642;47.556;18.728;2023-08-01T00:38:28;99046.19;;;24.63;44.77
51249;BME280;39642;47.556;18.728;2023-08-01T00:40:55;99047.06;;;24.63;44.76
51249;BME280;39642;47.556;18.728;2023-08-01T00:43:21;99049.72;;;24.63;44.79
51249;BME280;39642;47.556;18.728;2023-08-01T00:45:47;99034.59;;;24.64;44.76
51249;BME280;39642;47.556;18.728;2023-08-01T00:48:13;99029.25;;;24.64;44.81
51249;BME280;39642;47.556;18.728;2023-08-01T00:50:39;99027.56;;;24.63;44.80
51249;BME280;39642;47.556;18.728;2023-08-01T00:53:05;99039.06;;;24.63;44.78
51249;BME280;39642;47.556;18.728;2023-08-01T00:55:32;99032.87;;;24.63;44.78
51249;BME280;39642;47.556;18.728;2023-08-01T00:57:58;99026.59;;;24.64;44.88
51249;BME280;39642;47.556;18.728;2023-08-01T01:00:24;99025.91;;;24.62;44.79
51249;BME280;39642;47.556;18.728;2023-08-01T01:02:50;99021.41;;;24.62;44.87
51249;BME280;39642;47.556;18.728;2023-08-01T01:05:16;99020.56;;;24.62;44.88
51249;BME280;39642;47.556;18.728;2023-08-01T01:07:43;99019.72;;;24.61;44.88
51249;BME280;39642;47.556;18.728;2023-08-01T01:10:09;99010.75;;;24.62;44.84
51249;BME280;39642;47.556;18.728;2023-08-01T01:12:35;99009.91;;;24.62;44.88
51249;BME280;39642;47.556;18.728;2023-08-01T01:15:01;99011.75;;;24.61;44.91
51249;BME280;39642;47.556;18.728;2023-08-01T01:17:27;99012.72;;;24.60;44.89
51249;BME280;39642;47.556;18.728;2023-08-01T01:19:53;99004.72;;;24.60;44.89
51249;BME280;39642;47.556;18.728;2023-08-01T01:22:19;99002.06;;;24.60;44.91
51249;BME280;39642;47.556;18.728;2023-08-01T01:24:46;99010.03;;;24.60;44.80
51249;BME280;39642;47.556;18.728;2023-08-01T01:27:14;99011.03;;;24.59;44.92
51249;BME280;39642;47.556;18.728;2023-08-01T01:29:43;99003.06;;;24.59;44.91
51249;BME280;39642;47.556;18.728;2023-08-01T01:32:09;99002.19;;;24.59;44.82
51249;BME280;39642;47.556;18.728;2023-08-01T01:34:35;98996.88;;;24.59;44.91
51249;BME280;39642;47.556;18.728;2023-08-01T01:37:01;98995.06;;;24.59;44.86
51249;BME280;39642;47.556;18.728;2023-08-01T01:39:29;98996.88;;;24.59;44.91
51249;BME280;39642;47.556;18.728;2023-08-01T01:41:54;98990.72;;;24.58;44.83
51249;BME280;39642;47.556;18.728;2023-08-01T01:44:20;98990.72;;;24.58;44.87
51249;BME280;39642;47.556;18.728;2023-08-01T01:46:46;98993.38;;;24.58;44.88
51249;BME280;39642;47.556;18.728;2023-08-01T01:49:14;98988.03;;;24.58;44.79
51249;BME280;39642;47.556;18.728;2023-08-01T01:51:40;98990.72;;;24.58;44.89
51249;BME280;39642;47.556;18.728;2023-08-01T01:54:06;98978.22;;;24.59;44.93
51249;BME280;39642;47.556;18.728;2023-08-01T01:56:32;98982.72;;;24.58;44.88
51249;BME280;39642;47.556;18.728;2023-08-01T01:58:59;98977.41;;;24.58;44.91
51249;BME280;39642;47.556;18.728;2023-08-01T02:01:25;98978.38;;;24.57;44.90
51249;BME280;39642;47.556;18.728;2023-08-01T02:03:51;98971.25;;;24.58;44.93
51249;BME280;39642;47.556;18.728;2023-08-01T02:06:17;98967.75;;;24.57;44.93
51249;BME280;39642;47.556;18.728;2023-08-01T02:08:43;98972.22;;;24.57;44.92
51249;BME280;39642;47.556;18.728;2023-08-01T02:11:08;98970.41;;;24.57;44.94
51249;BME280;39642;47.556;18.728;2023-08-01T02:13:34;98973.06;;;24.57;44.89
51249;BME280;39642;47.556;18.728;2023-08-01T02:16:00;98972.22;;;24.57;44.87
51249;BME280;39642;47.556;18.728;2023-08-01T02:18:26;98966.91;;;24.57;44.94
51249;BME280;39642;47.556;18.728;2023-08-01T02:20:52;98962.53;;;24.56;44.96
51249;BME280;39642;47.556;18.728;2023-08-01T02:23:18;98957.22;;;24.56;44.95
51249;BME280;39642;47.556;18.728;2023-08-01T02:25:44;98957.22;;;24.56;44.96
51249;BME280;39642;47.556;18.728;2023-08-01T02:28:10;98950.06;;;24.56;44.98
51249;BME280;39642;47.556;18.728;2023-08-01T02:30:36;98958.94;;;24.57;44.95
51249;BME280;39642;47.556;18.728;2023-08-01T02:33:02;98950.06;;;24.56;44.90
51249;BME280;39642;47.556;18.728;2023-08-01T02:35:28;98951.06;;;24.55;44.98
51249;BME280;39642;47.556;18.728;2023-08-01T02:37:55;98949.25;;;24.56;44.95
51249;BME280;39642;47.556;18.728;2023-08-01T02:40:21;98949.37;;;24.54;44.97
51249;BME280;39642;47.556;18.728;2023-08-01T02:42:47;98951.06;;;24.55;44.99
51249;BME280;39642;47.556;18.728;2023-08-01T02:45:13;98952.91;;;24.55;45.02
51249;BME280;39642;47.556;18.728;2023-08-01T02:47:38;98949.37;;;24.54;45.03
51249;BME280;39642;47.556;18.728;2023-08-01T02:50:05;98956.37;;;24.55;45.01
51249;BME280;39642;47.556;18.728;2023-08-01T02:52:31;98947.56;;;24.55;44.98
51249;BME280;39642;47.556;18.728;2023-08-01T02:54:57;98950.22;;;24.55;45.02
51249;BME280;39642;47.556;18.728;2023-08-01T02:57:24;98952.91;;;24.55;44.96
51249;BME280;39642;47.556;18.728;2023-08-01T02:59:49;98950.22;;;24.55;45.03
51249;BME280;39642;47.556;18.728;2023-08-01T03:02:15;98948.53;;;24.54;44.90
51249;BME280;39642;47.556;18.728;2023-08-01T03:04:41;98946.88;;;24.52;44.95
51249;BME280;39642;47.556;18.728;2023-08-01T03:07:07;98947.56;;;24.55;45.00
51249;BME280;39642;47.556;18.728;2023-08-01T03:09:33;98945.88;;;24.54;44.97
51249;BME280;39642;47.556;18.728;2023-08-01T03:11:59;98945.88;;;24.54;45.04
51249;BME280;39642;47.556;18.728;2023-08-01T03:14:25;98939.59;;;24.55;44.98
51249;BME280;39642;47.556;18.728;2023-08-01T03:16:51;98943.22;;;24.54;45.05
51249;BME280;39642;47.556;18.728;2023-08-01T03:19:16;98932.56;;;24.54;45.02
51249;BME280;39642;47.556;18.728;2023-08-01T03:21:42;98930.91;;;24.52;45.05
51249;BME280;39642;47.556;18.728;2023-08-01T03:24:08;98933.41;;;24.54;45.04
51249;BME280;39642;47.556;18.728;2023-08-01T03:26:35;98942.37;;;24.53;45.09
51249;BME280;39642;47.556;18.728;2023-08-01T03:29:01;98943.22;;;24.54;45.05
51249;BME280;39642;47.556;18.728;2023-08-01T03:31:27;98936.22;;;24.52;45.05
51249;BME280;39642;47.556;18.728;2023-08-01T03:33:53;98937.88;;;24.54;45.10
51249;BME280;39642;47.556;18.728;2023-08-01T03:36:19;98937.06;;;24.53;45.04
51249;BME280;39642;47.556;18.728;2023-08-01T03:38:46;98933.56;;;24.52;45.13
51249;BME280;39642;47.556;18.728;2023-08-01T03:41:12;98933.56;;;24.52;45.14
51249;BME280;39642;47.556;18.728;2023-08-01T03:43:38;98930.91;;;24.52;45.14
51249;BME280;39642;47.556;18.728;2023-08-01T03:46:04;98934.37;;;24.53;45.11
51249;BME280;39642;47.556;18.728;2023-08-01T03:48:30;98930.91;;;24.52;45.15
51249;BME280;39642;47.556;18.728;2023-08-01T03:50:56;98930.91;;;24.52;45.20
51249;BME280;39642;47.556;18.728;2023-08-01T03:53:22;98936.22;;;24.52;45.18
51249;BME280;39642;47.556;18.728;2023-08-01T03:55:48;98930.91;;;24.52;45.18
51249;BME280;39642;47.556;18.728;2023-08-01T03:58:14;98925.56;;;24.52;45.21
51249;BME280;39642;47.556;18.728;2023-08-01T04:00:40;98929.06;;;24.53;45.11
51249;BME280;39642;47.556;18.728;2023-08-01T04:03:06;98929.91;;;24.54;45.18
51249;BME280;39642;47.556;18.728;2023-08-01T04:05:32;98929.06;;;24.53;45.25
51249;BME280;39642;47.556;18.728;2023-08-01T04:07:59;98923.75;;;24.53;45.26
51249;BME280;39642;47.556;18.728;2023-08-01T04:10:25;98928.22;;;24.52;45.22
51249;BME280;39642;47.556;18.728;2023-08-01T04:12:51;98930.91;;;24.52;45.29
51249;BME280;39642;47.556;18.728;2023-08-01T04:15:17;98927.41;;;24.52;45.24
51249;BME280;39642;47.556;18.728;2023-08-01T04:17:43;98937.88;;;24.54;45.27
51249;BME280;39642;47.556;18.728;2023-08-01T04:20:09;98929.06;;;24.53;45.23
51249;BME280;39642;47.556;18.728;2023-08-01T04:22:35;98925.56;;;24.52;45.33
51249;BME280;39642;47.556;18.728;2023-08-01T04:25:01;98921.09;;;24.53;45.25
51249;BME280;39642;47.556;18.728;2023-08-01T04:27:28;98926.28;;;24.55;45.28
51249;BME280;39642;47.556;18.728;2023-08-01T04:29:55;98919.25;;;24.54;45.26
51249;BME280;39642;47.556;18.728;2023-08-01T04:32:21;98912.09;;;24.54;45.26
51249;BME280;39642;47.556;18.728;2023-08-01T04:34:47;98911.28;;;24.54;45.31
51249;BME280;39642;47.556;18.728;2023-08-01T04:37:13;98913.94;;;24.54;45.24
51249;BME280;39642;47.556;18.728;2023-08-01T04:39:39;98911.28;;;24.54;45.30
51249;BME280;39642;47.556;18.728;2023-08-01T04:42:05;98903.28;;;24.54;45.30
51249;BME280;39642;47.556;18.728;2023-08-01T04:44:32;98900.62;;;24.54;45.24
51249;BME280;39642;47.556;18.728;2023-08-01T04:46:58;98897.97;;;24.54;45.19
51249;BME280;39642;47.556;18.728;2023-08-01T04:49:24;98906.78;;;24.54;45.32
51249;BME280;39642;47.556;18.728;2023-08-01T04:51:50;98912.97;;;24.55;45.35
51249;BME280;39642;47.556;18.728;2023-08-01T04:54:16;98913.94;;;24.54;45.28
51249;BME280;39642;47.556;18.728;2023-08-01T04:56:42;98905.94;;;24.54;45.30
51249;BME280;39642;47.556;18.728;2023-08-01T04:59:08;98909.44;;;24.54;45.40
51249;BME280;39642;47.556;18.728;2023-08-01T05:01:34;98908.47;;;24.55;45.39
51249;BME280;39642;47.556;18.728;2023-08-01T05:04:00;98908.47;;;24.55;45.44
51249;BME280;39642;47.556;18.728;2023-08-01T05:06:26;98900.50;;;24.55;45.31
51249;BME280;39642;47.556;18.728;2023-08-01T05:08:53;98898.66;;;24.56;45.37
51249;BME280;39642;47.556;18.728;2023-08-01T05:11:19;98893.34;;;24.56;45.40
51249;BME280;39642;47.556;18.728;2023-08-01T05:13:45;98900.38;;;24.57;45.42
51249;BME280;39642;47.556;18.728;2023-08-01T05:16:11;98897.72;;;24.57;45.40
51249;BME280;39642;47.556;18.728;2023-08-01T05:18:37;98900.38;;;24.57;45.38
51249;BME280;39642;47.556;18.728;2023-08-01T05:21:03;98894.19;;;24.56;45.33
51249;BME280;39642;47.556;18.728;2023-08-01T05:23:29;98898.66;;;24.56;45.39
51249;BME280;39642;47.556;18.728;2023-08-01T05:25:55;98897.72;;;24.57;45.46
51249;BME280;39642;47.556;18.728;2023-08-01T05:28:21;98897.00;;;24.55;45.47
51249;BME280;39642;47.556;18.728;2023-08-01T05:30:47;98897.00;;;24.55;45.49
51249;BME280;39642;47.556;18.728;2023-08-01T05:33:12;98903.16;;;24.55;45.52
51249;BME280;39642;47.556;18.728;2023-08-01T05:35:39;98910.31;;;24.55;45.59
51249;BME280;39642;47.556;18.728;2023-08-01T05:38:04;98905.94;;;24.54;45.60
51249;BME280;39642;47.556;18.728;2023-08-01T05:40:30;98904.13;;;24.54;45.64
51249;BME280;39642;47.556;18.728;2023-08-01T05:42:56;98908.59;;;24.54;45.71
51249;BME280;39642;47.556;18.728;2023-08-01T05:45:22;98910.31;;;24.55;45.68
51249;BME280;39642;47.556;18.728;2023-08-01T05:47:48;98911.00;;;24.57;45.71
51249;BME280;39642;47.556;18.728;2023-08-01T05:50:14;98911.69;;;24.59;45.70
51249;BME280;39642;47.556;18.728;2023-08-01T05:52:40;98916.06;;;24.60;45.69
51249;BME280;39642;47.556;18.728;2023-08-01T05:55:06;98916.88;;;24.60;45.79
51249;BME280;39642;47.556;18.728;2023-08-01T05:57:32;98920.53;;;24.59;45.87
51249;BME280;39642;47.556;18.728;2023-08-01T05:59:58;98918.72;;;24.60;45.87
51249;BME280;39642;47.556;18.728;2023-08-01T06:02:24;98920.38;;;24.61;45.90
51249;BME280;39642;47.556;18.728;2023-08-01T06:04:50;98918.59;;;24.61;45.92
51249;BME280;39642;47.556;18.728;2023-08-01T06:07:15;98911.44;;;24.62;45.96
51249;BME280;39642;47.556;18.728;2023-08-01T06:09:41;98918.44;;;24.63;45.97
51249;BME280;39642;47.556;18.728;2023-08-01T06:12:07;98909.59;;;24.62;46.01
51249;BME280;39642;47.556;18.728;2023-08-01T06:14:33;98916.63;;;24.63;46.06
51249;BME280;39642;47.556;18.728;2023-08-01T06:16:59;98910.31;;;24.64;46.10
51249;BME280;39642;47.556;18.728;2023-08-01T06:19:25;98905.81;;;24.65;46.17
51249;BME280;39642;47.556;18.728;2023-08-01T06:21:51;98907.53;;;24.66;46.13
51249;BME280;39642;47.556;18.728;2023-08-01T06:24:17;98911.03;;;24.66;46.22
51249;BME280;39642;47.556;18.728;2023-08-01T06:26:43;98910.19;;;24.66;46.30
51249;BME280;39642;47.556;18.728;2023-08-01T06:29:09;98907.38;;;24.67;46.31
51249;BME280;39642;47.556;18.728;2023-08-01T06:31:35;98898.25;;;24.70;46.44
51249;BME280;39642;47.556;18.728;2023-08-01T06:34:01;98907.66;;;24.74;46.41
51249;BME280;39642;47.556;18.728;2023-08-01T06:36:26;98896.87;;;24.76;46.45
51249;BME280;39642;47.556;18.728;2023-08-01T06:38:52;98902.06;;;24.77;46.44
51249;BME280;39642;47.556;18.728;2023-08-01T06:41:18;98901.22;;;24.77;46.45
51249;BME280;39642;47.556;18.728;2023-08-01T06:43:44;98901.09;;;24.78;46.51
51249;BME280;39642;47.556;18.728;2023-08-01T06:46:10;98899.25;;;24.79;46.62
51249;BME280;39642;47.556;18.728;2023-08-01T06:48:36;98894.78;;;24.79;46.69
51249;BME280;39642;47.556;18.728;2023-08-01T06:51:02;98891.13;;;24.80;46.75
51249;BME280;39642;47.556;18.728;2023-08-01T06:53:28;98895.47;;;24.81;46.75
51249;BME280;39642;47.556;18.728;2023-08-01T06:55:54;98887.34;;;24.83;46.93
51249;BME280;39642;47.556;18.728;2023-08-01T06:58:20;98888.87;;;24.85;46.94
51249;BME280;39642;47.556;18.728;2023-08-01T07:00:46;98882.44;;;24.88;46.98
51249;BME280;39642;47.556;18.728;2023-08-01T07:03:12;98879.34;;;24.92;46.86
51249;BME280;39642;47.556;18.728;2023-08-01T07:05:38;98888.03;;;24.94;46.85
51249;BME280;39642;47.556;18.728;2023-08-01T07:08:04;98883.41;;;24.97;46.85
51249;BME280;39642;47.556;18.728;2023-08-01T07:10:30;98880.75;;;24.97;46.82
51249;BME280;39642;47.556;18.728;2023-08-01T07:12:56;98874.47;;;24.98;46.89
51249;BME280;39642;47.556;18.728;2023-08-01T07:15:22;98870.53;;;25.02;46.43
51249;BME280;39642;47.556;18.728;2023-08-01T07:17:47;98867.59;;;25.05;46.41
51249;BME280;39642;47.556;18.728;2023-08-01T07:20:13;98869.12;;;25.07;46.61
51249;BME280;39642;47.556;18.728;2023-08-01T07:22:40;98865.50;;;25.08;46.60
51249;BME280;39642;47.556;18.728;2023-08-01T07:25:06;98859.16;;;25.09;46.44
51249;BME280;39642;47.556;18.728;2023-08-01T07:27:32;98868.00;;;25.10;46.30
51249;BME280;39642;47.556;18.728;2023-08-01T07:29:58;98861.69;;;25.11;46.38
51249;BME280;39642;47.556;18.728;2023-08-01T07:32:23;98847.38;;;25.12;46.38
51249;BME280;39642;47.556;18.728;2023-08-01T07:34:49;98853.41;;;25.14;46.42
51249;BME280;39642;47.556;18.728;2023-08-01T07:37:15;98854.41;;;25.13;46.61
51249;BME280;39642;47.556;18.728;2023-08-01T07:39:41;98844.72;;;25.12;46.60
51249;BME280;39642;47.556;18.728;2023-08-01T07:42:07;98837.56;;;25.12;46.68
51249;BME280;39642;47.556;18.728;2023-08-01T07:44:33;98834.63;;;25.16;46.57
51249;BME280;39642;47.556;18.728;2023-08-01T07:46:58;98832.81;;;25.16;46.87
51249;BME280;39642;47.556;18.728;2023-08-01T07:49:24;98822.97;;;25.17;47.05
51249;BME280;39642;47.556;18.728;2023-08-01T07:51:50;98828.31;;;25.17;47.04
51249;BME280;39642;47.556;18.728;2023-08-01T07:54:16;98829.88;;;25.19;46.97
51249;BME280;39642;47.556;18.728;2023-08-01T07:56:42;98825.41;;;25.20;47.25
51249;BME280;39642;47.556;18.728;2023-08-01T07:59:09;98836.72;;;25.22;47.37
51249;BME280;39642;47.556;18.728;2023-08-01T08:01:35;98819.78;;;25.23;47.80
51249;BME280;39642;47.556;18.728;2023-08-01T08:04:01;98827.66;;;25.24;47.63
51249;BME280;39642;47.556;18.728;2023-08-01T08:06:28;98824.12;;;25.24;47.52
51249;BME280;39642;47.556;18.728;2023-08-01T08:08:54;98827.47;;;25.26;47.42
51249;BME280;39642;47.556;18.728;2023-08-01T08:11:19;98818.53;;;25.27;47.85
51249;BME280;39642;47.556;18.728;2023-08-01T08:13:45;98815.00;;;25.26;47.01
51249;BME280;39642;47.556;18.728;2023-08-01T08:16:11;98814.84;;;25.28;47.71
51249;BME280;39642;47.556;18.728;2023-08-01T08:18:37;98819.22;;;25.29;48.02
51249;BME280;39642;47.556;18.728;2023-08-01T08:21:03;98813.19;;;25.27;48.38
51249;BME280;39642;47.556;18.728;2023-08-01T08:23:29;98815.84;;;25.27;48.38
51249;BME280;39642;47.556;18.728;2023-08-01T08:25:55;98812.19;;;25.28;47.96
51249;BME280;39642;47.556;18.728;2023-08-01T08:28:31;98803.38;;;25.27;48.03
51249;BME280;39642;47.556;18.728;2023-08-01T08:30:59;98808.69;;;25.27;48.84
51249;BME280;39642;47.556;18.728;2023-08-01T08:33:25;98804.34;;;25.26;48.55
51249;BME280;39642;47.556;18.728;2023-08-01T08:35:51;98804.34;;;25.26;48.64
51249;BME280;39642;47.556;18.728;2023-08-01T08:38:17;98804.34;;;25.26;48.82
51249;BME280;39642;47.556;18.728;2023-08-01T08:41:05;98798.16;;;25.26;49.04
51249;BME280;39642;47.556;18.728;2023-08-01T08:43:33;98798.16;;;25.26;48.17
51249;BME280;39642;47.556;18.728;2023-08-01T08:46:01;98796.34;;;25.26;47.66
51249;BME280;39642;47.556;18.728;2023-08-01T08:48:28;98789.03;;;25.28;47.86
51249;BME280;39642;47.556;18.728;2023-08-01T08:50:57;98781.06;;;25.28;48.41
51249;BME280;39642;47.556;18.728;2023-08-01T08:53:23;98780.09;;;25.29;47.34
51249;BME280;39642;47.556;18.728;2023-08-01T08:55:50;98779.09;;;25.30;47.45
51249;BME280;39642;47.556;18.728;2023-08-01T08:58:16;98776.97;;;25.34;47.45
51249;BME280;39642;47.556;18.728;2023-08-01T09:00:43;98778.66;;;25.35;47.58
51249;BME280;39642;47.556;18.728;2023-08-01T09:03:10;98779.50;;;25.36;47.51
51249;BME280;39642;47.556;18.728;2023-08-01T09:05:54;98771.66;;;25.34;48.04
51249;BME280;39642;47.556;18.728;2023-08-01T09:08:24;98773.47;;;25.33;48.04
51249;BME280;39642;47.556;18.728;2023-08-01T09:10:52;98765.63;;;25.32;47.93
51249;BME280;39642;47.556;18.728;2023-08-01T09:13:18;98761.97;;;25.33;47.60
51249;BME280;39642;47.556;18.728;2023-08-01T09:15:44;98757.50;;;25.33;46.97
51249;BME280;39642;47.556;18.728;2023-08-01T09:18:12;98759.16;;;25.34;47.30
51249;BME280;39642;47.556;18.728;2023-08-01T09:20:46;98756.34;;;25.36;47.72
51249;BME280;39642;47.556;18.728;2023-08-01T09:23:12;98751.16;;;25.34;48.14
51249;BME280;39642;47.556;18.728;2023-08-01T09:25:39;98746.84;;;25.33;47.74
51249;BME280;39642;47.556;18.728;2023-08-01T09:28:22;98737.97;;;25.33;47.53
51249;BME280;39642;47.556;18.728;2023-08-01T09:30:54;98738.84;;;25.33;47.25
51249;BME280;39642;47.556;18.728;2023-08-01T09:33:22;98742.19;;;25.36;47.37
51249;BME280;39642;47.556;18.728;2023-08-01T09:35:50;98736.00;;;25.35;46.88
51249;BME280;39642;47.556;18.728;2023-08-01T09:38:16;98737.72;;;25.36;46.67
51249;BME280;39642;47.556;18.728;2023-08-01T09:40:43;98734.03;;;25.37;46.78
51249;BME280;39642;47.556;18.728;2023-08-01T09:43:11;98730.41;;;25.38;47.12
51249;BME280;39642;47.556;18.728;2023-08-01T09:45:37;98731.25;;;25.39;46.43
51249;BME280;39642;47.556;18.728;2023-08-01T09:48:04;98717.09;;;25.38;46.38
51249;BME280;39642;47.556;18.728;2023-08-01T09:50:31;98719.44;;;25.41;46.75
51249;BME280;39642;47.556;18.728;2023-08-01T09:53:07;98712.28;;;25.42;47.00
51249;BME280;39642;47.556;18.728;2023-08-01T09:55:33;98711.44;;;25.41;47.12
51249;BME280;39642;47.556;18.728;2023-08-01T09:58:00;98707.13;;;25.40;46.95
51249;BME280;39642;47.556;18.728;2023-08-01T10:00:27;98716.91;;;25.40;46.79
51249;BME280;39642;47.556;18.728;2023-08-01T10:02:55;98715.25;;;25.39;46.80
51249;BME280;39642;47.556;18.728;2023-08-01T10:05:22;98713.59;;;25.38;46.57
51249;BME280;39642;47.556;18.728;2023-08-01T10:07:50;98707.25;;;25.39;46.71
51249;BME280;39642;47.556;18.728;2023-08-01T10:10:18;98710.91;;;25.38;46.30
51249;BME280;39642;47.556;18.728;2023-08-01T10:12:45;98708.25;;;25.38;46.53
51249;BME280;39642;47.556;18.728;2023-08-01T10:15:15;98695.06;;;25.36;46.28
51249;BME280;39642;47.556;18.728;2023-08-01T10:17:41;98702.94;;;25.38;46.55
51249;BME280;39642;47.556;18.728;2023-08-01T10:20:07;98703.19;;;25.34;46.82
51249;BME280;39642;47.556;18.728;2023-08-01T10:22:34;98705.87;;;25.34;46.78
51249;BME280;39642;47.556;18.728;2023-08-01T10:25:00;98700.66;;;25.33;46.55
51249;BME280;39642;47.556;18.728;2023-08-01T10:27:26;98699.84;;;25.32;46.71
51249;BME280;39642;47.556;18.728;2023-08-01T10:29:59;98694.50;;;25.32;46.56
51249;BME280;39642;47.556;18.728;2023-08-01T10:32:33;98686.50;;;25.32;46.61
51249;BME280;39642;47.556;18.728;2023-08-01T10:34:59;98687.34;;;25.33;46.08
51249;BME280;39642;47.556;18.728;2023-08-01T10:37:26;98685.56;;;25.33;45.92
51249;BME280;39642;47.556;18.728;2023-08-01T10:39:59;98683.56;;;25.36;45.69
51249;BME280;39642;47.556;18.728;2023-08-01T10:42:25;98685.25;;;25.37;45.78
51249;BME280;39642;47.556;18.728;2023-08-01T10:45:02;98681.59;;;25.38;45.74
51249;BME280;39642;47.556;18.728;2023-08-01T10:47:28;98682.44;;;25.38;46.08
51249;BME280;39642;47.556;18.728;2023-08-01T10:49:54;98671.91;;;25.37;45.65
51249;BME280;39642;47.556;18.728;2023-08-01T10:52:22;98662.94;;;25.38;45.87
51249;BME280;39642;47.556;18.728;2023-08-01T10:55:02;98656.75;;;25.37;45.59
51249;BME280;39642;47.556;18.728;2023-08-01T10:57:30;98662.94;;;25.38;45.74
51249;BME280;39642;47.556;18.728;2023-08-01T10:59:58;98658.47;;;25.38;45.95
51249;BME280;39642;47.556;18.728;2023-08-01T11:02:28;98659.28;;;25.39;45.89
51249;BME280;39642;47.556;18.728;2023-08-01T11:05:12;98662.09;;;25.37;45.66
51249;BME280;39642;47.556;18.728;2023-08-01T11:07:38;98664.94;;;25.36;45.67
51249;BME280;39642;47.556;18.728;2023-08-01T11:10:13;98658.59;;;25.37;46.13
51249;BME280;39642;47.556;18.728;2023-08-01T11:12:43;98654.28;;;25.36;45.58
51249;BME280;39642;47.556;18.728;2023-08-01T11:15:11;98651.59;;;25.36;45.63
51249;BME280;39642;47.556;18.728;2023-08-01T11:17:42;98651.59;;;25.36;45.73
51249;BME280;39642;47.556;18.728;2023-08-01T11:20:12;98648.75;;;25.37;45.95
51249;BME280;39642;47.556;18.728;2023-08-01T11:22:49;98647.09;;;25.36;45.94
51249;BME280;39642;47.556;18.728;2023-08-01T11:25:15;98647.94;;;25.37;45.80
51249;BME280;39642;47.556;18.728;2023-08-01T11:27:41;98639.25;;;25.34;45.66
51249;BME280;39642;47.556;18.728;2023-08-01T11:30:07;98633.91;;;25.34;46.04
51249;BME280;39642;47.556;18.728;2023-08-01T11:32:37;98628.59;;;25.34;45.99
51249;BME280;39642;47.556;18.728;2023-08-01T11:35:04;98620.72;;;25.33;45.55
51249;BME280;39642;47.556;18.728;2023-08-01T11:37:30;98617.94;;;25.34;45.81
51249;BME280;39642;47.556;18.728;2023-08-01T11:39:58;98615.25;;;25.34;45.58
51249;BME280;39642;47.556;18.728;2023-08-01T11:42:24;98616.97;;;25.36;45.57
51249;BME280;39642;47.556;18.728;2023-08-01T11:44:50;98616.78;;;25.37;45.57
51249;BME280;39642;47.556;18.728;2023-08-01T11:47:17;98603.63;;;25.36;45.38
51249;BME280;39642;47.556;18.728;2023-08-01T11:49:50;98607.00;;;25.38;45.23
51249;BME280;39642;47.556;18.728;2023-08-01T11:52:26;98598.81;;;25.39;45.04
51249;BME280;39642;47.556;18.728;2023-08-01T11:54:53;98595.19;;;25.40;45.23
51249;BME280;39642;47.556;18.728;2023-08-01T11:57:23;98595.19;;;25.40;45.66
51249;BME280;39642;47.556;18.728;2023-08-01T11:59:51;98590.69;;;25.41;45.85
51249;BME280;39642;47.556;18.728;2023-08-01T12:02:21;98599.66;;;25.40;45.83
51249;BME280;39642;47.556;18.728;2023-08-01T12:04:48;98588.34;;;25.38;45.67
51249;BME280;39642;47.556;18.728;2023-08-01T12:07:15;98569.81;;;25.36;45.41
51249;BME280;39642;47.556;18.728;2023-08-01T12:09:42;98569.00;;;25.36;45.26
51249;BME280;39642;47.556;18.728;2023-08-01T12:12:08;98573.19;;;25.38;45.56
51249;BME280;39642;47.556;18.728;2023-08-01T12:14:41;98568.69;;;25.39;45.28
51249;BME280;39642;47.556;18.728;2023-08-01T12:17:07;98567.69;;;25.40;45.78
51249;BME280;39642;47.556;18.728;2023-08-01T12:19:33;98561.69;;;25.38;45.86
51249;BME280;39642;47.556;18.728;2023-08-01T12:21:59;98558.16;;;25.37;45.87
51249;BME280;39642;47.556;18.728;2023-08-01T12:24:25;98548.50;;;25.36;45.75
51249;BME280;39642;47.556;18.728;2023-08-01T12:26:51;98539.69;;;25.36;45.86
51249;BME280;39642;47.556;18.728;2023-08-01T12:29:17;98537.03;;;25.36;45.75
51249;BME280;39642;47.556;18.728;2023-08-01T12:31:43;98533.50;;;25.35;45.81
51249;BME280;39642;47.556;18.728;2023-08-01T12:34:09;98537.03;;;25.36;45.92
51249;BME280;39642;47.556;18.728;2023-08-01T12:36:35;98518.50;;;25.34;45.96
51249;BME280;39642;47.556;18.728;2023-08-01T12:39:01;98531.84;;;25.34;46.08
51249;BME280;39642;47.556;18.728;2023-08-01T12:41:27;98530.13;;;25.33;46.09
51249;BME280;39642;47.556;18.728;2023-08-01T12:43:52;98522.16;;;25.33;46.11
51249;BME280;39642;47.556;18.728;2023-08-01T12:46:18;98518.81;;;25.31;46.03
51249;BME280;39642;47.556;18.728;2023-08-01T12:48:45;98514.31;;;25.31;46.05